Time;durP1;ratioP1;P1;durP2;ratioP2;P2;SDS_P1;SDS_P2;PMS_P1;PMS_P2;Temp;Humidity;BMP_temperature;BMP_pressure;BME280_temperature;BME280_humidity;BME280_pressure;Samples;Min_cycle;Max_cycle;Signal;HPM_P1;HPM_P2
2022/06/04 00:01:01;;;;;;;13.82;11.02;;;;;;;21.63;66.75;95108.19;4171829;28;20045;-55
2022/06/04 00:03:04;;;;;;;16.45;10.60;;;;;;;21.70;66.40;95115.31;4168176;28;20369;-54
2022/06/04 00:05:08;;;;;;;13.17;11.10;;;;;;;21.73;66.42;95109.56;4178654;28;20614;-54
2022/06/04 00:07:09;;;;;;;16.13;10.65;;;;;;;21.74;65.97;95113.84;4178320;28;20048;-53
2022/06/04 00:09:12;;;;;;;13.88;10.68;;;;;;;21.66;66.26;95113.09;4163296;28;20061;-54
2022/06/04 00:15:59;;;;;;;12.88;10.70;;;;;;;21.28;67.63;95111.31;4173011;28;20049;-55
2022/06/04 00:18:01;;;;;;;14.20;11.23;;;;;;;21.34;67.59;95100.81;4165656;28;20084;-52
2022/06/04 00:20:03;;;;;;;12.18;9.93;;;;;;;21.41;67.39;95112.25;4166776;28;20677;-55
2022/06/04 00:22:05;;;;;;;14.15;10.88;;;;;;;21.48;67.16;95107.72;4171148;28;20057;-53
2022/06/04 00:24:07;;;;;;;15.90;10.23;;;;;;;21.53;66.40;95105.22;4165637;28;20445;-53
2022/06/04 00:26:10;;;;;;;16.95;10.68;;;;;;;21.62;66.25;95108.44;4161190;28;20559;-52
2022/06/04 00:28:12;;;;;;;13.18;10.25;;;;;;;21.67;66.11;95105.91;4165173;28;20548;-53
2022/06/04 00:30:13;;;;;;;16.13;10.13;;;;;;;21.71;66.07;95104.44;4175664;28;20053;-52
2022/06/04 00:32:17;;;;;;;17.40;9.85;;;;;;;21.74;65.87;95105.84;4169467;28;20045;-52
2022/06/04 00:34:18;;;;;;;12.93;9.80;;;;;;;21.73;65.73;95105.06;4165699;28;20123;-55
2022/06/04 00:36:20;;;;;;;16.67;10.68;;;;;;;21.76;65.61;95098.47;4163314;28;20464;-56
2022/06/04 00:38:24;;;;;;;17.48;10.32;;;;;;;21.76;65.67;95104.59;4162026;28;20112;-53
2022/06/04 00:40:32;;;;;;;15.68;11.05;;;;;;;21.78;65.30;95096.38;4161956;28;20358;-55
2022/06/04 00:42:34;;;;;;;12.35;10.23;;;;;;;21.68;65.60;95094.22;4166201;28;20118;-53
2022/06/04 00:45:26;;;;;;;12.90;10.32;;;;;;;21.50;66.38;95091.50;4176284;28;20529;-51
2022/06/04 00:47:28;;;;;;;14.15;10.68;;;;;;;21.30;66.83;95091.63;4174487;28;20156;-53
2022/06/04 00:49:30;;;;;;;15.40;10.68;;;;;;;21.17;67.67;95085.34;4166431;28;20588;-51
2022/06/04 00:51:38;;;;;;;13.68;11.25;;;;;;;21.13;67.91;95070.84;4176062;28;20048;-52
2022/06/04 00:53:41;;;;;;;14.35;10.80;;;;;;;21.17;67.84;95080.03;4171420;28;20053;-55
2022/06/04 00:56:07;;;;;;;17.38;11.35;;;;;;;21.10;67.97;95081.94;4164261;28;20162;-54
2022/06/04 00:58:23;;;;;;;15.18;11.57;;;;;;;20.97;68.81;95074.00;4173525;28;20110;-53
2022/06/04 01:00:30;;;;;;;15.43;10.93;;;;;;;20.83;69.07;95074.09;4162418;28;20472;-53
2022/06/04 01:03:17;;;;;;;17.52;10.90;;;;;;;20.68;69.65;95067.44;4174807;28;20040;-50
2022/06/04 01:05:35;;;;;;;14.07;10.60;;;;;;;20.70;69.63;95070.69;4172418;28;20044;-52
2022/06/04 01:07:55;;;;;;;15.52;10.65;;;;;;;20.84;69.34;95064.25;4166831;28;20628;-54
2022/06/04 01:10:20;;;;;;;16.25;10.98;;;;;;;20.98;68.72;95059.66;4165074;28;20057;-54
2022/06/04 01:12:45;;;;;;;16.80;11.23;;;;;;;21.08;68.21;95062.69;4171928;28;20160;-53
2022/06/04 01:15:17;;;;;;;14.02;10.27;;;;;;;21.17;67.95;95063.25;4166533;28;20079;-50
2022/06/04 01:17:25;;;;;;;10.95;9.77;;;;;;;21.25;67.30;95071.78;4167912;28;20060;-51
2022/06/04 01:19:27;;;;;;;13.02;10.02;;;;;;;21.29;67.10;95072.16;4164110;28;20111;-50
2022/06/04 01:21:47;;;;;;;11.77;10.23;;;;;;;21.34;66.73;95074.16;4172410;28;20103;-51
2022/06/04 01:23:55;;;;;;;15.07;9.50;;;;;;;21.36;66.56;95074.75;4161108;28;20084;-51
2022/06/04 01:26:15;;;;;;;12.77;9.98;;;;;;;21.39;66.61;95064.50;4159462;28;20920;-52
2022/06/04 01:28:17;;;;;;;14.85;8.85;;;;;;;21.40;66.13;95055.47;4159546;28;20415;-54
2022/06/04 01:30:26;;;;;;;11.13;9.82;;;;;;;21.39;66.14;95056.50;4159522;28;20448;-51
2022/06/04 01:32:40;;;;;;;12.65;9.60;;;;;;;21.40;66.10;95054.63;4158641;28;20513;-49
2022/06/04 01:35:01;;;;;;;13.57;9.90;;;;;;;21.42;66.28;95052.59;4170410;28;20392;-52
2022/06/04 01:37:17;;;;;;;12.70;9.48;;;;;;;21.43;66.35;95046.25;4169442;28;20371;-55
2022/06/04 01:39:24;;;;;;;11.30;8.65;;;;;;;21.43;66.09;95043.59;4168176;28;20468;-53
2022/06/04 01:41:35;;;;;;;12.75;9.10;;;;;;;21.40;66.06;95054.63;4175053;28;20139;-54
2022/06/04 01:43:43;;;;;;;13.68;9.80;;;;;;;21.39;66.29;95063.69;4167412;28;20482;-55
2022/06/04 01:45:46;;;;;;;11.27;9.60;;;;;;;21.37;66.34;95050.56;4170119;28;20501;-53
2022/06/04 01:47:50;;;;;;;16.73;11.45;;;;;;;21.31;66.33;95051.44;4176100;28;20052;-52
2022/06/04 01:49:54;;;;;;;15.60;11.20;;;;;;;21.19;67.00;95047.84;4174800;28;20049;-53
2022/06/04 01:52:00;;;;;;;21.75;12.02;;;;;;;20.94;67.69;95047.81;4167463;28;20061;-55
2022/06/04 01:54:24;;;;;;;16.95;11.32;;;;;;;20.61;68.85;95054.16;4158678;28;20062;-54
2022/06/04 01:56:29;;;;;;;13.35;11.15;;;;;;;20.60;69.43;95055.97;4157661;28;20045;-54
2022/06/04 01:58:44;;;;;;;14.55;11.52;;;;;;;20.61;69.65;95064.81;4163667;28;20041;-52
2022/06/04 02:00:51;;;;;;;15.57;11.38;;;;;;;20.68;68.97;95068.22;4163435;28;20425;-53
2022/06/04 02:03:01;;;;;;;18.95;11.57;;;;;;;20.75;68.56;95074.31;4159066;28;20049;-54
2022/06/04 02:05:06;;;;;;;15.95;10.82;;;;;;;20.76;68.22;95086.63;4163285;28;20060;-52
2022/06/04 02:07:30;;;;;;;12.63;10.20;;;;;;;20.81;68.10;95086.78;4175827;28;20052;-56
2022/06/04 02:09:34;;;;;;;14.23;10.40;;;;;;;20.75;67.61;95098.28;4162537;28;20050;-52
2022/06/04 02:11:37;;;;;;;13.43;8.88;;;;;;;20.69;67.01;95101.78;4173460;28;20098;-50
2022/06/04 02:13:39;;;;;;;16.17;10.35;;;;;;;20.68;67.12;95102.03;4165228;28;20045;-52
2022/06/04 02:16:20;;;;;;;20.20;10.23;;;;;;;20.69;66.96;95101.00;4160725;28;20057;-51
2022/06/04 02:18:23;;;;;;;12.98;8.75;;;;;;;20.74;66.29;95109.97;4168942;28;20470;-53
2022/06/04 02:20:25;;;;;;;9.98;8.98;;;;;;;20.77;66.21;95108.75;4176653;28;20122;-50
2022/06/04 02:22:27;;;;;;;11.52;8.95;;;;;;;20.81;66.32;95109.94;4176809;28;20049;-50
2022/06/04 02:24:29;;;;;;;14.52;10.80;;;;;;;20.81;66.06;95109.94;4175343;28;20041;-54
2022/06/04 02:26:31;;;;;;;14.73;11.77;;;;;;;20.82;66.39;95114.22;4172360;28;20060;-53
2022/06/04 02:28:32;;;;;;;14.55;11.45;;;;;;;20.84;66.44;95118.34;4165440;28;20547;-53
2022/06/04 02:31:16;;;;;;;14.70;11.25;;;;;;;20.87;66.45;95119.75;4174219;28;20041;-54
2022/06/04 02:33:23;;;;;;;14.60;10.80;;;;;;;20.86;66.60;95120.75;4158798;28;20059;-54
2022/06/04 02:35:33;;;;;;;16.58;11.10;;;;;;;20.86;66.73;95108.28;4160499;28;20111;-55
2022/06/04 02:37:39;;;;;;;15.07;11.80;;;;;;;20.90;66.81;95115.84;4159384;28;20111;-52
2022/06/04 02:39:44;;;;;;;12.27;10.73;;;;;;;20.93;66.87;95110.06;4159570;28;20049;-51
2022/06/04 02:41:54;;;;;;;15.15;10.77;;;;;;;20.94;66.53;95112.53;4171478;28;20063;-54
2022/06/04 02:44:08;;;;;;;12.80;10.23;;;;;;;20.95;66.41;95108.03;4175773;28;20528;-52
2022/06/04 02:46:40;;;;;;;14.90;10.90;;;;;;;20.96;66.77;95104.34;4158688;28;20103;-56
2022/06/04 02:48:46;;;;;;;15.50;10.63;;;;;;;20.99;66.75;95099.41;4158475;28;20403;-57
2022/06/04 02:50:57;;;;;;;13.43;10.63;;;;;;;20.98;66.27;95103.09;4188149;28;20082;-53
2022/06/04 02:53:00;;;;;;;17.42;10.38;;;;;;;21.01;65.97;95096.50;4164218;28;20052;-56
2022/06/04 02:55:08;;;;;;;11.88;9.68;;;;;;;21.02;65.93;95096.31;4168065;28;20123;-56
2022/06/04 02:57:12;;;;;;;13.55;10.45;;;;;;;21.05;65.94;95095.06;4159961;28;20103;-57
2022/06/04 02:59:16;;;;;;;12.70;10.30;;;;;;;21.04;65.92;95096.09;4159218;28;20123;-52
2022/06/04 03:01:18;;;;;;;14.45;9.95;;;;;;;21.04;65.73;95098.78;4156194;28;20049;-58
2022/06/04 03:03:21;;;;;;;18.17;10.38;;;;;;;20.96;65.98;95091.03;4163738;28;20052;-54
2022/06/04 03:05:25;;;;;;;14.63;10.32;;;;;;;20.91;66.38;95097.00;4157590;28;20089;-52
2022/06/04 03:07:27;;;;;;;14.40;10.38;;;;;;;20.93;66.70;95091.44;4171016;28;20057;-52
2022/06/04 03:09:29;;;;;;;11.90;9.90;;;;;;;20.96;66.40;95088.38;4175318;28;20057;-53
2022/06/04 03:11:32;;;;;;;12.18;9.65;;;;;;;21.00;66.44;95087.72;4165091;28;20049;-53
2022/06/04 03:13:34;;;;;;;13.13;10.70;;;;;;;21.03;66.54;95079.28;4174123;28;20049;-53
2022/06/04 03:15:36;;;;;;;15.40;10.75;;;;;;;21.13;66.44;95081.50;4165612;28;20065;-53
2022/06/04 03:17:40;;;;;;;16.60;10.70;;;;;;;21.20;65.97;95084.09;4159472;28;20111;-57
2022/06/04 03:19:42;;;;;;;16.50;11.10;;;;;;;21.24;65.79;95085.31;4164448;28;20054;-51
2022/06/04 03:21:43;;;;;;;16.75;12.02;;;;;;;21.28;65.67;95084.66;4159328;28;20057;-50
2022/06/04 03:23:45;;;;;;;13.35;11.10;;;;;;;21.33;65.86;95081.34;4164848;28;20045;-55
2022/06/04 03:25:47;;;;;;;13.60;10.85;;;;;;;21.40;65.21;95075.94;4174814;28;20048;-50
2022/06/04 03:27:49;;;;;;;15.13;10.98;;;;;;;21.46;65.31;95075.94;4175908;28;20395;-50
2022/06/04 03:29:50;;;;;;;14.50;11.65;;;;;;;21.51;65.13;95079.78;4159866;28;20422;-50
2022/06/04 03:31:52;;;;;;;15.65;11.43;;;;;;;21.54;64.84;95080.19;4159100;28;20441;-52
2022/06/04 03:33:55;;;;;;;15.05;10.30;;;;;;;21.55;64.91;95073.81;4164512;28;20106;-52
2022/06/04 03:35:57;;;;;;;14.27;10.77;;;;;;;21.59;64.18;95080.34;4165861;28;20049;-54
2022/06/04 03:37:59;;;;;;;12.75;10.40;;;;;;;21.60;64.44;95081.97;4162769;28;20060;-52
2022/06/04 03:40:04;;;;;;;15.55;10.27;;;;;;;21.61;64.21;95077.47;4168547;28;20474;-52
2022/06/04 03:42:06;;;;;;;14.07;10.45;;;;;;;21.61;64.41;95083.59;4176175;28;20048;-53
2022/06/04 03:44:08;;;;;;;11.88;9.82;;;;;;;21.66;64.26;95080.28;4160478;28;20524;-53
2022/06/04 03:46:10;;;;;;;12.63;10.30;;;;;;;21.75;64.25;95075.50;4170091;28;20175;-53
2022/06/04 03:48:12;;;;;;;11.82;10.18;;;;;;;21.81;63.94;95072.78;4165581;28;20060;-51
2022/06/04 03:50:16;;;;;;;14.07;9.82;;;;;;;21.87;63.71;95066.53;4165867;28;20065;-52
2022/06/04 03:52:18;;;;;;;14.05;10.15;;;;;;;21.90;63.46;95081.31;4159366;28;20061;-54
2022/06/04 03:54:52;;;;;;;13.00;10.32;;;;;;;21.94;63.51;95082.50;4158079;28;20045;-51
2022/06/04 03:56:41;;;;;;;18.23;11.10;;;;;;;21.99;63.45;95071.16;4165923;28;20049;-53
2022/06/04 03:58:43;;;;;;;13.82;11.05;;;;;;;22.01;63.56;95083.25;4167203;28;20409;-54
2022/06/04 04:00:45;;;;;;;12.48;11.18;;;;;;;22.04;62.99;95079.31;4174023;28;20364;-53
2022/06/04 04:02:59;;;;;;;12.32;10.63;;;;;;;22.11;63.14;95092.56;4174390;28;20095;-52
2022/06/04 04:05:00;;;;;;;15.73;11.65;;;;;;;22.14;62.82;95097.50;4163993;28;20053;-53
2022/06/04 04:07:02;;;;;;;14.80;11.52;;;;;;;22.11;62.61;95097.91;4167362;28;20494;-54
2022/06/04 04:09:09;;;;;;;17.40;11.75;;;;;;;22.14;63.14;95095.63;4169371;28;20123;-51
2022/06/04 04:11:13;;;;;;;16.05;12.07;;;;;;;22.16;63.10;95101.56;4173631;28;20052;-55
2022/06/04 04:13:16;;;;;;;;;;;;;;;22.22;62.94;95094.50;4159683;28;20045;-54
2022/06/04 04:15:18;;;;;;;17.83;11.63;;;;;;;22.27;62.74;95110.72;4162323;28;19924;-52
2022/06/04 04:17:22;;;;;;;15.48;11.90;;;;;;;22.34;62.37;95102.63;4170899;28;20044;-52
2022/06/04 04:19:28;;;;;;;18.60;11.43;;;;;;;22.34;62.31;95103.44;4164414;28;20049;-52
2022/06/04 04:21:39;;;;;;;15.88;11.63;;;;;;;22.21;62.17;95100.91;4172193;28;20279;-55
2022/06/04 04:23:41;;;;;;;19.23;11.63;;;;;;;21.98;62.74;95105.00;4168328;28;20053;-51
2022/06/04 04:25:43;;;;;;;16.07;12.27;;;;;;;21.74;63.72;95108.53;4166771;28;20457;-51
2022/06/04 04:27:45;;;;;;;16.02;12.68;;;;;;;21.51;64.21;95109.97;4161802;28;20058;-52
2022/06/04 04:29:47;;;;;;;19.52;13.10;;;;;;;21.08;65.72;95113.28;4171485;28;20048;-50
2022/06/04 04:31:48;;;;;;;17.08;12.35;;;;;;;20.61;67.70;95118.84;4175436;28;20057;-55
2022/06/04 04:33:50;;;;;;;14.50;12.73;;;;;;;20.58;67.70;95121.09;4166349;28;20053;-54
2022/06/04 04:35:52;;;;;;;15.90;12.82;;;;;;;20.70;67.81;95124.75;4167695;28;20070;-49
2022/06/04 04:37:55;;;;;;;17.23;13.18;;;;;;;20.60;68.22;95127.03;4166336;28;20053;-53
2022/06/04 04:39:56;;;;;;;17.42;13.65;;;;;;;20.44;69.15;95131.78;4165019;28;20120;-50
2022/06/04 04:41:58;;;;;;;21.98;14.23;;;;;;;20.40;69.31;95130.56;4173956;28;20171;-52
2022/06/04 04:44:00;;;;;;;20.52;14.57;;;;;;;20.40;69.34;95143.84;4176616;28;20052;-49
2022/06/04 04:46:06;;;;;;;15.77;13.63;;;;;;;20.43;69.57;95146.13;4163227;28;20136;-51
2022/06/04 04:48:08;;;;;;;21.13;14.35;;;;;;;20.54;69.26;95144.66;4170603;28;20573;-48
2022/06/04 04:50:33;;;;;;;19.45;13.40;;;;;;;20.73;68.66;95145.59;4161018;28;20111;-51
2022/06/04 04:52:35;;;;;;;18.73;13.23;;;;;;;20.75;68.30;95146.22;4175839;28;20052;-51
2022/06/04 04:54:36;;;;;;;14.68;13.18;;;;;;;20.65;69.05;95152.00;4175914;28;20514;-53
2022/06/04 04:56:39;;;;;;;19.73;13.27;;;;;;;20.85;68.59;95156.44;4171075;28;20115;-54
2022/06/04 04:58:41;;;;;;;21.08;13.57;;;;;;;20.95;68.20;95154.13;4160662;28;20061;-53
2022/06/04 05:00:43;;;;;;;14.80;12.85;;;;;;;21.19;67.14;95157.91;4171839;28;20678;-53
2022/06/04 05:02:46;;;;;;;18.80;13.43;;;;;;;21.08;67.25;95158.56;4175771;28;20056;-49
2022/06/04 05:04:47;;;;;;;14.73;12.18;;;;;;;21.21;67.17;95150.50;4161286;28;20049;-52
2022/06/04 05:06:49;;;;;;;24.13;14.48;;;;;;;21.44;66.65;95143.81;4166667;28;20131;-49
2022/06/04 05:08:54;;;;;;;19.92;14.65;;;;;;;21.49;66.16;95146.66;4177692;28;20114;-51
2022/06/04 05:10:55;;;;;;;19.30;14.98;;;;;;;21.42;66.69;95138.72;4176368;28;20110;-49
2022/06/04 05:12:57;;;;;;;21.60;15.20;;;;;;;21.54;66.63;95140.69;4162569;28;20049;-53
2022/06/04 05:14:59;;;;;;;21.30;14.65;;;;;;;21.70;66.21;95150.00;4175846;28;20095;-51
2022/06/04 05:17:00;;;;;;;18.40;14.13;;;;;;;21.75;65.66;95150.16;4171161;28;20045;-51
2022/06/04 05:19:03;;;;;;;19.83;14.65;;;;;;;21.64;65.63;95152.50;4166983;28;20118;-53
2022/06/04 05:21:12;;;;;;;21.00;14.98;;;;;;;21.52;66.78;95153.41;4172141;28;20056;-53
2022/06/04 05:23:13;;;;;;;22.98;15.70;;;;;;;21.73;66.40;95155.72;4162338;28;20107;-49
2022/06/04 05:25:16;;;;;;;16.25;14.25;;;;;;;21.92;65.78;95153.91;4172782;28;20049;-54
2022/06/04 05:27:18;;;;;;;19.75;14.20;;;;;;;22.08;65.10;95158.69;4163850;28;20125;-51
2022/06/04 05:29:20;;;;;;;16.65;13.95;;;;;;;22.27;64.81;95151.56;4161471;28;20054;-53
2022/06/04 05:31:23;;;;;;;17.27;13.90;;;;;;;22.32;63.71;95155.41;4174985;28;20049;-53
2022/06/04 05:33:24;;;;;;;16.67;13.32;;;;;;;22.29;63.92;95159.34;4163618;28;20045;-50
2022/06/04 05:35:26;;;;;;;25.80;15.07;;;;;;;22.40;63.52;95155.94;4177401;28;20053;-56
2022/06/04 05:37:28;;;;;;;17.65;14.15;;;;;;;22.53;63.31;95149.66;4162570;28;20057;-53
2022/06/04 05:39:36;;;;;;;17.48;14.15;;;;;;;22.45;63.49;95152.59;4173746;28;20570;-50
2022/06/04 05:41:38;;;;;;;16.13;13.90;;;;;;;22.59;63.64;95146.09;4171926;28;20144;-49
2022/06/04 05:43:40;;;;;;;18.98;14.25;;;;;;;22.54;63.67;95155.78;4170697;28;20106;-51
2022/06/04 05:45:42;;;;;;;16.73;14.23;;;;;;;22.67;63.58;95155.63;4166366;28;20574;-53
2022/06/04 05:47:44;;;;;;;20.40;14.35;;;;;;;22.80;62.59;95160.84;4162129;28;20049;-54
2022/06/04 05:49:46;;;;;;;20.90;14.18;;;;;;;22.75;62.32;95163.34;4167492;28;20057;-52
2022/06/04 05:51:49;;;;;;;18.58;14.43;;;;;;;22.75;62.63;95167.88;4165271;28;20049;-51
2022/06/04 05:53:52;;;;;;;19.48;14.00;;;;;;;22.66;62.99;95172.72;4175560;28;20526;-51
2022/06/04 05:55:54;;;;;;;17.77;13.85;;;;;;;22.76;62.45;95167.66;4167084;28;20053;-53
2022/06/04 05:57:56;;;;;;;18.80;13.52;;;;;;;22.92;61.74;95162.75;4162316;28;20080;-51
2022/06/04 05:59:58;;;;;;;17.90;13.80;;;;;;;23.10;61.46;95162.75;4170780;28;20100;-50
2022/06/04 06:02:01;;;;;;;17.58;13.80;;;;;;;23.19;61.42;95158.72;4166264;28;20107;-49
2022/06/04 06:04:05;;;;;;;18.48;13.65;;;;;;;23.31;61.19;95156.91;4167131;28;20061;-52
2022/06/04 06:06:12;;;;;;;17.50;14.02;;;;;;;23.42;60.70;95154.50;4172084;28;20053;-53
2022/06/04 06:08:31;;;;;;;17.38;14.25;;;;;;;23.58;59.86;95161.06;4164286;28;20540;-51
2022/06/04 06:10:46;;;;;;;19.55;12.77;;;;;;;23.65;60.02;95162.56;4168945;28;20142;-48
2022/06/04 06:12:48;;;;;;;17.08;13.38;;;;;;;23.66;59.78;95161.56;4162722;28;20079;-51
2022/06/04 06:14:50;;;;;;;16.10;13.32;;;;;;;23.64;59.55;95160.97;4169180;28;20050;-51
2022/06/04 06:16:52;;;;;;;17.55;13.35;;;;;;;23.65;59.73;95157.22;4160212;28;20061;-52
2022/06/04 06:18:58;;;;;;;16.85;13.48;;;;;;;23.66;59.26;95153.53;4168588;28;20049;-50
2022/06/04 06:21:04;;;;;;;21.60;14.90;;;;;;;23.66;59.18;95158.03;4159335;28;20088;-54
2022/06/04 06:23:06;;;;;;;21.38;13.82;;;;;;;23.62;59.54;95148.88;4176481;28;20076;-53
2022/06/04 06:25:08;;;;;;;17.80;13.73;;;;;;;23.60;59.34;95149.09;4175692;28;20049;-51
2022/06/04 06:27:10;;;;;;;20.23;13.82;;;;;;;23.56;59.62;95139.09;4166905;28;20046;-51
2022/06/04 06:29:12;;;;;;;23.02;14.18;;;;;;;23.44;60.18;95134.50;4159985;28;20456;-52
2022/06/04 06:31:17;;;;;;;20.73;13.25;;;;;;;23.47;60.02;95142.09;4156605;28;20470;-52
2022/06/04 06:33:19;;;;;;;17.25;13.23;;;;;;;23.56;60.25;95137.22;4159949;28;20166;-53
2022/06/04 06:35:21;;;;;;;18.70;15.18;;;;;;;23.67;59.84;95143.63;4170128;28;20041;-50
2022/06/04 06:37:22;;;;;;;20.45;14.00;;;;;;;23.72;60.13;95141.06;4170902;28;20053;-51
2022/06/04 06:39:24;;;;;;;17.80;13.68;;;;;;;23.79;59.29;95141.00;4171327;28;20045;-52
2022/06/04 06:41:26;;;;;;;16.23;13.55;;;;;;;23.94;58.90;95141.38;4162859;28;20441;-47
2022/06/04 06:43:38;;;;;;;17.55;13.98;;;;;;;24.16;58.53;95138.94;4163270;28;20133;-53
2022/06/04 06:45:41;;;;;;;20.70;13.40;;;;;;;24.37;57.84;95134.84;4173207;28;20052;-52
2022/06/04 06:47:44;;;;;;;25.05;14.80;;;;;;;24.46;57.81;95127.28;4169426;28;20055;-54
2022/06/04 06:49:46;;;;;;;18.20;14.13;;;;;;;24.60;57.43;95120.63;4168860;28;20208;-51
2022/06/04 06:51:50;;;;;;;13.50;11.13;;;;;;;24.60;56.76;95117.94;4160561;28;20126;-50
2022/06/04 06:53:55;;;;;;;13.35;10.48;;;;;;;24.67;56.89;95126.69;4167317;28;20045;-53
2022/06/04 06:55:58;;;;;;;18.55;11.10;;;;;;;24.79;56.63;95115.13;4159068;28;20045;-49
2022/06/04 06:58:00;;;;;;;15.48;10.63;;;;;;;24.96;55.21;95115.19;4158361;28;20050;-50
2022/06/04 07:00:04;;;;;;;13.85;10.48;;;;;;;25.09;55.26;95112.22;4156794;28;20049;-51
2022/06/04 07:02:06;;;;;;;19.50;10.98;;;;;;;25.16;55.24;95110.19;4159910;28;20053;-51
2022/06/04 07:04:08;;;;;;;15.68;11.55;;;;;;;25.26;55.16;95102.38;4172059;28;20118;-50
2022/06/04 07:06:12;;;;;;;15.98;11.32;;;;;;;25.37;54.34;95102.53;4161571;28;20241;-54
2022/06/04 07:08:14;;;;;;;15.57;11.52;;;;;;;25.47;54.09;95100.03;4175240;28;20052;-52
2022/06/04 07:10:15;;;;;;;13.15;10.13;;;;;;;25.61;54.33;95103.22;4169194;28;20052;-50
2022/06/04 07:12:17;;;;;;;18.48;11.02;;;;;;;25.34;53.89;95104.66;4170941;28;20128;-54
2022/06/04 07:14:20;;;;;;;15.45;11.50;;;;;;;25.05;55.28;95100.34;4173274;28;20048;-51
2022/06/04 07:16:22;;;;;;;16.25;9.98;;;;;;;25.12;54.96;95109.03;4157486;28;20053;-53
2022/06/04 07:18:24;;;;;;;13.23;9.90;;;;;;;25.24;55.03;95100.97;4166002;28;20305;-51
2022/06/04 07:20:25;;;;;;;17.58;10.38;;;;;;;25.21;54.64;95096.91;4160842;28;20115;-52
2022/06/04 07:22:27;;;;;;;13.60;9.70;;;;;;;25.16;54.62;95098.66;4159347;28;20190;-54
2022/06/04 07:24:29;;;;;;;12.88;8.27;;;;;;;25.20;54.37;95089.91;4158054;28;20115;-52
2022/06/04 07:26:30;;;;;;;15.52;8.88;;;;;;;25.41;54.67;95087.59;4158342;28;20042;-52
2022/06/04 07:28:32;;;;;;;11.18;8.25;;;;;;;25.63;54.42;95088.50;4165163;28;20053;-55
2022/06/04 07:30:34;;;;;;;11.20;8.57;;;;;;;25.90;53.49;95082.50;4173565;28;20045;-48
2022/06/04 07:32:36;;;;;;;16.58;9.20;;;;;;;26.22;52.98;95080.03;4163761;28;20049;-51
2022/06/04 07:34:39;;;;;;;14.77;9.68;;;;;;;26.38;52.48;95074.84;4160243;28;20050;-53
2022/06/04 07:36:42;;;;;;;16.08;9.80;;;;;;;26.24;52.18;95075.22;4159006;28;20045;-50
2022/06/04 07:38:45;;;;;;;24.55;12.88;;;;;;;26.26;52.11;95072.25;4158338;28;20081;-50
2022/06/04 07:40:47;;;;;;;22.63;9.95;;;;;;;26.17;51.80;95074.56;4175563;28;20045;-51
2022/06/04 07:42:48;;;;;;;10.57;8.57;;;;;;;25.93;52.32;95071.28;4165378;28;20122;-52
2022/06/04 07:44:50;;;;;;;11.68;8.77;;;;;;;25.92;52.78;95072.31;4171539;28;20053;-50
2022/06/04 07:46:55;;;;;;;13.30;8.80;;;;;;;25.94;52.34;95059.47;4173885;28;20389;-53
2022/06/04 07:49:00;;;;;;;12.80;8.18;;;;;;;25.89;52.42;95059.41;4172690;28;20107;-50
2022/06/04 07:51:04;;;;;;;11.85;8.02;;;;;;;26.03;53.19;95068.75;4157910;28;20072;-55
2022/06/04 07:53:06;;;;;;;10.63;6.75;;;;;;;26.25;52.68;95066.09;4159012;28;20461;-52
2022/06/04 07:55:09;;;;;;;11.88;6.32;;;;;;;26.46;52.03;95061.78;4173382;28;20064;-51
2022/06/04 07:57:10;;;;;;;8.95;6.93;;;;;;;26.67;51.10;95067.44;4161382;28;20053;-52
2022/06/04 07:59:16;;;;;;;9.98;7.15;;;;;;;26.76;50.68;95060.56;4174476;28;20041;-53
2022/06/04 08:01:20;;;;;;;12.90;8.25;;;;;;;26.50;50.36;95062.91;4167208;28;20131;-51
2022/06/04 08:03:23;;;;;;;16.40;6.85;;;;;;;26.33;50.90;95062.16;4166506;28;20100;-53
2022/06/04 08:05:24;;;;;;;18.92;7.60;;;;;;;26.40;50.84;95057.41;4161860;28;20057;-52
2022/06/04 08:07:27;;;;;;;11.02;7.22;;;;;;;26.54;50.24;95050.63;4174783;28;20667;-52
2022/06/04 08:09:28;;;;;;;13.80;6.95;;;;;;;26.43;49.23;95054.22;4165970;28;20049;-52
2022/06/04 08:11:34;;;;;;;10.80;6.90;;;;;;;26.24;49.89;95045.69;4177338;28;20106;-55
2022/06/04 08:13:36;;;;;;;10.82;6.32;;;;;;;25.81;50.47;95044.47;4168485;28;20509;-53
2022/06/04 08:15:38;;;;;;;14.48;6.78;;;;;;;25.91;50.63;95044.66;4159675;28;20045;-52
2022/06/04 08:17:40;;;;;;;11.88;6.20;;;;;;;26.17;50.87;95049.59;4160774;28;20606;-51
2022/06/04 08:19:42;;;;;;;14.88;6.60;;;;;;;26.42;51.20;95049.13;4169739;28;20041;-51
2022/06/04 08:21:53;;;;;;;13.43;5.53;;;;;;;26.61;50.71;95049.63;4177576;28;20057;-49
2022/06/04 08:23:55;;;;;;;13.82;5.63;;;;;;;26.63;48.54;95042.13;4167298;28;20065;-50
2022/06/04 08:25:56;;;;;;;12.80;5.13;;;;;;;26.72;48.35;95043.31;4173986;28;20053;-53
2022/06/04 08:27:58;;;;;;;9.60;5.22;;;;;;;26.70;47.77;95040.06;4161866;28;20729;-52
2022/06/04 08:30:00;;;;;;;10.73;5.35;;;;;;;26.73;47.85;95029.59;4164208;28;20460;-51
2022/06/04 08:32:02;;;;;;;11.85;5.60;;;;;;;26.83;48.05;95028.13;4167569;28;20103;-50
2022/06/04 08:34:05;;;;;;;9.27;5.67;;;;;;;26.96;48.23;95025.81;4166654;28;20422;-49
2022/06/04 08:36:08;;;;;;;10.40;5.63;;;;;;;27.09;47.86;95026.47;4167516;28;20324;-52
2022/06/04 08:38:09;;;;;;;11.07;5.95;;;;;;;27.18;47.99;95023.06;4168502;28;20494;-55
2022/06/04 08:40:31;;;;;;;11.00;6.18;;;;;;;27.25;47.78;95020.19;4171472;28;20118;-50
2022/06/04 08:43:19;;;;;;;13.27;6.35;;;;;;;27.29;47.31;95024.00;4170252;28;20058;-52
2022/06/04 08:45:21;;;;;;;8.45;5.30;;;;;;;27.39;48.16;95015.22;4164701;28;20049;-50
2022/06/04 08:47:28;;;;;;;9.63;6.10;;;;;;;27.44;47.35;95015.25;4175636;28;20053;-53
2022/06/04 08:49:33;;;;;;;8.95;5.43;;;;;;;27.49;47.03;95014.47;4163714;28;20114;-54
2022/06/04 08:51:35;;;;;;;15.57;5.68;;;;;;;27.55;46.91;95010.75;4168428;28;20462;-51
2022/06/04 08:53:36;;;;;;;12.77;5.70;;;;;;;27.62;47.29;95014.03;4174303;28;20110;-51
2022/06/04 08:58:19;;;;;;;9.82;5.22;;;;;;;27.17;46.21;95009.88;4169900;28;20118;-53
2022/06/04 09:00:36;;;;;;;7.25;4.45;;;;;;;26.95;45.85;95012.63;4166184;28;20049;-48
2022/06/04 09:02:41;;;;;;;8.43;4.90;;;;;;;27.04;45.21;95013.81;4169961;28;20518;-53
2022/06/04 09:04:52;;;;;;;7.47;4.65;;;;;;;27.09;44.64;95013.03;4160153;28;20065;-53
2022/06/04 09:07:06;;;;;;;9.43;4.82;;;;;;;27.11;45.06;95013.59;4159562;28;20134;-51
2022/06/04 09:09:07;;;;;;;;;;;;;;;27.16;45.15;95013.63;4171072;28;20548;-53
2022/06/04 09:11:13;;;;;;;9.15;5.25;;;;;;;27.23;45.60;95016.94;4175011;28;19932;-50
2022/06/04 09:13:36;;;;;;;11.98;5.35;;;;;;;27.01;45.52;95024.25;4167252;28;20049;-52
2022/06/04 09:15:46;;;;;;;8.65;5.03;;;;;;;26.95;45.15;95018.84;4171623;28;20049;-53
2022/06/04 09:17:50;;;;;;;7.95;4.90;;;;;;;26.97;45.27;95015.88;4161010;28;20141;-53
2022/06/04 09:19:56;;;;;;;8.15;4.72;;;;;;;26.98;44.92;95009.44;4172280;28;20139;-50
2022/06/04 09:21:58;;;;;;;5.78;4.20;;;;;;;27.06;45.69;95013.53;4174847;28;20057;-50
2022/06/04 09:24:00;;;;;;;13.32;5.30;;;;;;;27.19;45.69;95015.81;4165441;28;20099;-52
2022/06/04 09:26:13;;;;;;;7.80;4.78;;;;;;;27.16;44.49;95014.44;4173720;28;20072;-51
2022/06/04 09:28:18;;;;;;;7.97;4.90;;;;;;;27.01;44.81;95018.88;4177356;28;20128;-54
2022/06/04 09:30:34;;;;;;;10.35;5.18;;;;;;;27.04;44.80;95015.66;4175261;28;20493;-52
2022/06/04 09:33:03;;;;;;;6.95;4.80;;;;;;;27.30;45.01;95020.25;4163371;28;20664;-52
2022/06/04 09:35:05;;;;;;;8.73;4.78;;;;;;;27.32;43.87;95028.88;4173029;28;20769;-49
2022/06/04 09:37:09;;;;;;;8.52;4.85;;;;;;;27.30;44.32;95020.25;4161641;28;20406;-50
2022/06/04 09:39:25;;;;;;;10.98;5.03;;;;;;;27.58;44.42;95023.69;4173357;28;20087;-47
2022/06/04 09:41:29;;;;;;;5.50;4.55;;;;;;;27.81;43.68;95016.31;4171924;28;20094;-49
2022/06/04 09:43:32;;;;;;;11.13;4.85;;;;;;;27.91;43.02;95021.78;4174353;28;20049;-52
2022/06/04 09:45:39;;;;;;;8.85;5.32;;;;;;;27.85;43.07;95018.25;4166924;28;20053;-51
2022/06/04 09:47:43;;;;;;;6.10;4.50;;;;;;;27.78;42.11;95017.63;4160462;28;20053;-49
2022/06/04 09:49:57;;;;;;;7.70;4.75;;;;;;;27.85;42.99;95018.25;4158714;28;20107;-51